Time;durP1;ratioP1;P1;durP2;ratioP2;P2;SDS_P1;SDS_P2;PMS_P1;PMS_P2;Temp;Humidity;BMP_temperature;BMP_pressure;BME280_temperature;BME280_humidity;BME280_pressure;Samples;Min_cycle;Max_cycle;Signal;HPM_P1;HPM_P2
2022/10/08 00:00:22;;;;;;;;;;;;;;;12.60;73.18;101574.38;5030039;28;19917;-68
2022/10/08 00:02:47;;;;;;;;;;;;;;;12.59;73.55;101569.97;5022584;28;19996;-68
2022/10/08 00:05:12;;;;;;;;;;;;;;;12.55;73.36;101575.94;5021025;28;19921;-68
2022/10/08 00:07:37;;;;;;;;;;;;;;;12.55;73.46;101570.72;5021462;28;20304;-68
2022/10/08 00:10:05;;;;;;;;;;;;;;;12.54;73.46;101568.94;5022055;28;19924;-68
2022/10/08 00:12:30;;;;;;;;;;;;;;;12.53;73.47;101569.81;5020542;28;19921;-68
2022/10/08 00:14:55;;;;;;;;;;;;;;;12.51;73.47;101569.78;5021675;28;19923;-68
2022/10/08 00:17:20;;;;;;;;;;;;;;;12.52;73.84;101573.25;5021472;28;19925;-68
2022/10/08 00:19:45;;;;;;;;;;;;;;;12.53;73.59;101572.44;5021285;28;19966;-68
2022/10/08 00:22:10;;;;;;;;;;;;;;;12.53;73.85;101577.66;5021230;28;19921;-68
2022/10/08 00:24:37;;;;;;;;;;;;;;;12.55;73.90;101580.31;5022330;28;19925;-68
2022/10/08 00:27:02;;;;;;;;;;;;;;;12.56;73.79;101577.72;5023069;28;20408;-68
2022/10/08 00:29:28;;;;;;;;;;;;;;;12.56;73.74;101564.66;5023100;28;19967;-68
2022/10/08 00:31:53;;;;;;;;;;;;;;;12.59;73.99;101572.59;5021877;28;19917;-68
2022/10/08 00:34:20;;;;;;;;;;;;;;;12.60;74.03;101581.28;5019705;28;20277;-68
2022/10/08 00:36:49;;;;;;;;;;;;;;;12.60;73.97;101569.13;5019334;28;20407;-68
2022/10/08 00:39:15;;;;;;;;;;;;;;;12.61;74.10;101570.00;5023095;28;20000;-68
2022/10/08 00:41:41;;;;;;;;;;;;;;;12.63;74.02;101573.53;5025252;28;19921;-68
2022/10/08 00:44:25;;;;;;;;;;;;;;;12.64;74.02;101565.75;5019334;28;19925;-68
2022/10/08 00:46:50;;;;;;;;;;;;;;;12.66;74.00;101573.66;5021050;28;20299;-68
2022/10/08 00:49:17;;;;;;;;;;;;;;;12.67;74.22;101575.38;5020575;28;19921;-68
2022/10/08 00:51:44;;;;;;;;;;;;;;;12.68;74.45;101577.16;5022688;28;20384;-68
2022/10/08 00:54:11;;;;;;;;;;;;;;;12.70;74.23;101580.69;5022643;28;19925;-68
2022/10/08 00:56:37;;;;;;;;;;;;;;;12.71;74.88;101582.47;5046268;28;20378;-68
2022/10/08 00:59:03;;;;;;;;;;;;;;;12.72;74.88;101583.38;5042772;28;20406;-68
2022/10/08 01:01:31;;;;;;;;;;;;;;;12.73;75.06;101585.13;5035867;28;19917;-68
2022/10/08 01:03:57;;;;;;;;;;;;;;;12.75;75.20;101588.69;5029041;28;20361;-69
2022/10/08 01:06:28;;;;;;;;;;;;;;;12.73;74.97;101593.88;5032125;28;19921;-68
2022/10/08 01:09:07;;;;;;;;;;;;;;;12.74;75.04;101589.53;5030355;28;19920;-68
2022/10/08 01:11:45;;;;;;;;;;;;;;;12.73;75.71;101593.88;5032730;28;19963;-69
2022/10/08 01:14:12;;;;;;;;;;;;;;;12.74;75.84;101602.59;5041746;28;20008;-68
2022/10/08 01:16:45;;;;;;;;;;;;;;;12.74;75.37;101615.69;5044992;28;20273;-68
2022/10/08 01:19:21;;;;;;;;;;;;;;;12.74;77.01;101613.06;5040212;28;19925;-68
2022/10/08 01:21:47;;;;;;;;;;;;;;;12.70;77.84;101610.38;5034747;28;19942;-68
2022/10/08 01:24:14;;;;;;;;;;;;;;;12.65;77.71;101606.72;5032221;28;19917;-68
2022/10/08 01:26:56;;;;;;;;;;;;;;;12.59;78.10;101609.19;5038699;28;19929;-68
2022/10/08 01:29:34;;;;;;;;;;;;;;;12.54;78.39;101608.16;5035697;28;19924;-68
2022/10/08 01:32:03;;;;;;;;;;;;;;;12.47;78.53;101595.75;5038853;28;20361;-68
2022/10/08 01:34:36;;;;;;;;;;;;;;;12.43;79.17;101594.81;5032717;28;19921;-68
2022/10/08 01:37:02;;;;;;;;;;;;;;;12.43;79.49;101601.78;5022522;28;19917;-68
2022/10/08 01:39:30;;;;;;;;;;;;;;;12.40;79.60;101607.78;5040058;28;19917;-68
2022/10/08 01:41:57;;;;;;;;;;;;;;;12.38;79.38;101608.56;5045877;28;19917;-68
2022/10/08 01:44:28;;;;;;;;;;;;;;;12.39;78.82;101605.13;5040059;28;20385;-68
2022/10/08 01:46:57;;;;;;;;;;;;;;;12.41;80.04;101598.22;5040209;28;19921;-68
2022/10/08 01:49:24;;;;;;;;;;;;;;;12.40;79.68;101596.44;5034908;28;19987;-68
2022/10/08 01:51:51;;;;;;;;;;;;;;;12.40;79.24;101597.34;5019254;28;20376;-68
2022/10/08 01:54:17;;;;;;;;;;;;;;;12.40;79.18;101606.88;5031239;28;20012;-68
2022/10/08 01:56:44;;;;;;;;;;;;;;;12.40;79.56;101606.88;5037002;28;20019;-64
2022/10/08 01:59:19;;;;;;;;;;;;;;;12.39;79.19;101610.34;5029836;28;19975;-65
2022/10/08 02:02:02;;;;;;;;;;;;;;;12.37;79.15;101619.88;5042514;28;19917;-64
2022/10/08 02:04:32;;;;;;;;;;;;;;;12.37;79.51;101625.09;5038574;28;19917;-64
2022/10/08 02:06:58;;;;;;;;;;;;;;;12.38;79.73;101619.03;5034465;28;20437;-64
2022/10/08 02:09:24;;;;;;;;;;;;;;;12.38;79.85;101613.81;5032180;28;19952;-64
2022/10/08 02:11:50;;;;;;;;;;;;;;;12.33;79.66;101626.75;5030481;28;19921;-64
2022/10/08 02:14:15;;;;;;;;;;;;;;;12.31;79.60;101621.47;5029027;28;19979;-64
2022/10/08 02:16:45;;;;;;;;;;;;;;;12.28;79.62;101616.16;5031778;28;20346;-64
2022/10/08 02:19:14;;;;;;;;;;;;;;;12.28;79.82;101615.25;5027908;28;19932;-65
2022/10/08 02:21:40;;;;;;;;;;;;;;;12.26;79.85;101620.44;5030351;28;19943;-65
2022/10/08 02:24:15;;;;;;;;;;;;;;;12.25;79.73;101613.47;5028619;28;20300;-65
2022/10/08 02:26:44;;;;;;;;;;;;;;;12.23;79.98;101609.91;5030289;28;19931;-69
2022/10/08 02:29:14;;;;;;;;;;;;;;;12.21;79.89;101618.53;5031194;28;19921;-69
2022/10/08 02:31:44;;;;;;;;;;;;;;;12.19;79.94;101623.72;5039398;28;20419;-69
2022/10/08 02:34:22;;;;;;;;;;;;;;;12.17;80.12;101620.19;5042066;28;19925;-69
2022/10/08 02:37:11;;;;;;;;;;;;;;;12.17;79.90;101621.06;5031650;28;19917;-69
2022/10/08 02:39:38;;;;;;;;;;;;;;;12.17;79.96;101625.41;5028166;28;20015;-69
2022/10/08 02:42:06;;;;;;;;;;;;;;;12.13;79.84;101619.19;5044080;28;20372;-69
2022/10/08 02:44:34;;;;;;;;;;;;;;;12.13;80.56;101620.94;5041100;28;20361;-69
2022/10/08 02:47:01;;;;;;;;;;;;;;;12.07;80.25;101624.25;5030443;28;19947;-69
2022/10/08 02:49:32;;;;;;;;;;;;;;;12.05;80.36;101617.19;5031013;28;20432;-69
2022/10/08 02:52:00;;;;;;;;;;;;;;;12.04;80.25;101624.16;5034147;28;19986;-69
2022/10/08 02:54:28;;;;;;;;;;;;;;;12.03;80.32;101622.38;5041300;28;19925;-69
2022/10/08 02:56:57;;;;;;;;;;;;;;;12.03;80.32;101611.94;5033274;28;20414;-64
2022/10/08 02:59:24;;;;;;;;;;;;;;;12.03;80.35;101613.66;5034458;28;20147;-65
2022/10/08 03:01:52;;;;;;;;;;;;;;;12.00;80.22;101615.31;5031121;28;19921;-64
2022/10/08 03:04:23;;;;;;;;;;;;;;;11.97;80.33;101612.63;5029949;28;19966;-64
2022/10/08 03:06:50;;;;;;;;;;;;;;;11.91;80.58;101612.41;5034425;28;19917;-65
2022/10/08 03:09:17;;;;;;;;;;;;;;;11.87;80.87;101613.16;5036750;28;19948;-64
2022/10/08 03:11:43;;;;;;;;;;;;;;;11.87;80.52;101618.38;5044217;28;19920;-65
2022/10/08 03:14:11;;;;;;;;;;;;;;;11.86;80.86;101623.56;5032024;28;19927;-64
2022/10/08 03:16:40;;;;;;;;;;;;;;;11.85;81.22;101627.91;5029079;28;19917;-64
2022/10/08 03:19:06;;;;;;;;;;;;;;;11.84;80.88;101620.91;5025474;28;19921;-65
2022/10/08 03:21:32;;;;;;;;;;;;;;;11.83;80.65;101627.84;5018510;28;19924;-64
2022/10/08 03:23:57;;;;;;;;;;;;;;;11.85;80.80;101627.91;5019642;28;20328;-65
2022/10/08 03:26:22;;;;;;;;;;;;;;;11.85;81.04;101633.13;5022250;28;20300;-69
2022/10/08 03:28:47;;;;;;;;;;;;;;;11.81;80.98;101624.28;5040223;28;19923;-69
2022/10/08 03:31:13;;;;;;;;;;;;;;;11.81;81.62;101632.13;5024735;28;19975;-69
2022/10/08 03:33:38;;;;;;;;;;;;;;;11.80;81.23;101634.69;5031524;28;20406;-69
2022/10/08 03:36:03;;;;;;;;;;;;;;;11.79;81.42;101640.78;5028696;28;19917;-69
2022/10/08 03:38:28;;;;;;;;;;;;;;;11.80;81.37;101645.13;5023515;28;19917;-69
2022/10/08 03:40:55;;;;;;;;;;;;;;;11.78;81.71;101650.31;5027204;28;19975;-69
2022/10/08 03:43:20;;;;;;;;;;;;;;;11.75;81.52;101650.22;5024502;28;20638;-69
2022/10/08 03:45:50;;;;;;;;;;;;;;;11.74;81.67;101650.19;5018800;28;20174;-69
2022/10/08 03:48:15;;;;;;;;;;;;;;;11.71;82.18;101648.34;5017842;28;19932;-69
2022/10/08 03:50:47;;;;;;;;;;;;;;;11.72;81.80;101657.97;5018779;28;19925;-69
2022/10/08 03:53:13;;;;;;;;;;;;;;;11.69;81.86;101652.66;5021585;28;19929;-69
2022/10/08 03:55:38;;;;;;;;;;;;;;;11.66;81.41;101658.66;5039865;28;19920;-69
2022/10/08 03:58:03;;;;;;;;;;;;;;;11.66;81.56;101660.38;5034541;28;19921;-69
2022/10/08 04:00:28;;;;;;;;;;;;;;;11.60;82.08;101658.47;5032739;28;20019;-69
2022/10/08 04:02:54;;;;;;;;;;;;;;;11.57;82.05;101658.38;5038814;28;19921;-69
2022/10/08 04:05:19;;;;;;;;;;;;;;;11.55;82.22;101654.78;5020349;28;20320;-69
2022/10/08 04:07:44;;;;;;;;;;;;;;;11.54;82.15;101665.19;5018215;28;19925;-69
2022/10/08 04:10:09;;;;;;;;;;;;;;;11.53;82.29;101664.31;5020341;28;19944;-69
2022/10/08 04:12:34;;;;;;;;;;;;;;;11.51;82.59;101663.34;5019498;28;19925;-69
2022/10/08 04:14:59;;;;;;;;;;;;;;;11.48;82.47;101661.56;5033230;28;20308;-69
2022/10/08 04:17:25;;;;;;;;;;;;;;;11.47;82.53;101667.59;5049782;28;19916;-69
2022/10/08 04:19:51;;;;;;;;;;;;;;;11.49;82.45;101665.03;5034927;28;19974;-69
2022/10/08 04:22:16;;;;;;;;;;;;;;;11.48;83.26;101672.00;5046161;28;20003;-69
2022/10/08 04:24:41;;;;;;;;;;;;;;;11.48;82.96;101673.69;5037819;28;20016;-69
2022/10/08 04:27:06;;;;;;;;;;;;;;;11.48;83.15;101673.69;5032804;28;19921;-69
2022/10/08 04:29:31;;;;;;;;;;;;;;;11.50;82.97;101672.03;5033652;28;19966;-69
2022/10/08 04:31:57;;;;;;;;;;;;;;;11.49;83.31;101670.25;5030227;28;19935;-69
2022/10/08 04:34:22;;;;;;;;;;;;;;;11.52;86.03;101675.59;5032309;28;20374;-69
2022/10/08 04:36:47;;;;;;;;;;;;;;;11.49;85.13;101680.69;5031427;28;20008;-69
2022/10/08 04:39:12;;;;;;;;;;;;;;;11.49;84.53;101680.69;5029506;28;19921;-69
2022/10/08 04:41:37;;;;;;;;;;;;;;;11.50;84.86;101674.66;5035068;28;19928;-69
2022/10/08 04:44:03;;;;;;;;;;;;;;;11.51;84.16;101685.97;5035682;28;20324;-69
2022/10/08 04:46:28;;;;;;;;;;;;;;;11.52;85.72;101683.41;5048836;28;19936;-69
2022/10/08 04:48:54;;;;;;;;;;;;;;;11.49;85.38;101696.38;5036073;28;20008;-69
2022/10/08 04:51:21;;;;;;;;;;;;;;;11.51;84.54;101699.03;5030961;28;20073;-69
2022/10/08 04:53:46;;;;;;;;;;;;;;;11.56;85.52;101705.28;5038224;28;20466;-69
2022/10/08 04:56:19;;;;;;;;;;;;;;;11.56;85.25;101710.53;5035053;28;19956;-69
2022/10/08 04:58:45;;;;;;;;;;;;;;;11.56;86.59;101711.41;5047378;28;19920;-69
2022/10/08 05:01:11;;;;;;;;;;;;;;;11.56;84.93;101714.00;5052511;28;19966;-69
2022/10/08 05:03:41;;;;;;;;;;;;;;;11.57;85.42;101720.09;5047319;28;20395;-69
2022/10/08 05:06:06;;;;;;;;;;;;;;;11.58;85.53;101729.72;5033926;28;19917;-69
2022/10/08 05:08:32;;;;;;;;;;;;;;;11.58;85.49;101722.75;5023607;28;19940;-69
2022/10/08 05:10:57;;;;;;;;;;;;;;;11.60;85.53;101723.72;5022224;28;19917;-69
2022/10/08 05:13:22;;;;;;;;;;;;;;;11.62;85.84;101718.53;5021453;28;19921;-69
2022/10/08 05:15:47;;;;;;;;;;;;;;;11.64;86.51;101725.59;5030011;28;20383;-69
2022/10/08 05:18:13;;;;;;;;;;;;;;;11.63;85.61;101730.78;5027129;28;19921;-69
2022/10/08 05:20:38;;;;;;;;;;;;;;;11.62;86.62;101729.88;5020490;28;20028;-69
2022/10/08 05:23:03;;;;;;;;;;;;;;;11.61;86.03;101727.19;5020801;28;19924;-69
2022/10/08 05:25:30;;;;;;;;;;;;;;;11.61;85.42;101727.19;5024285;28;19975;-69
2022/10/08 05:27:55;;;;;;;;;;;;;;;11.60;86.81;101736.78;5031309;28;20401;-69
2022/10/08 05:30:20;;;;;;;;;;;;;;;11.59;86.57;101740.19;5031520;28;19987;-69
2022/10/08 05:32:45;;;;;;;;;;;;;;;11.60;87.07;101739.38;5021593;28;20380;-69
2022/10/08 05:35:10;;;;;;;;;;;;;;;11.62;86.45;101736.81;5020762;28;20189;-69
2022/10/08 05:37:36;;;;;;;;;;;;;;;11.63;87.39;101747.31;5023427;28;20416;-69
2022/10/08 05:40:01;;;;;;;;;;;;;;;11.63;86.77;101747.31;5036019;28;19964;-69
2022/10/08 05:42:26;;;;;;;;;;;;;;;11.64;86.37;101751.72;5037523;28;19921;-69
2022/10/08 05:44:51;;;;;;;;;;;;;;;11.65;87.12;101750.84;5032648;28;20281;-69
2022/10/08 05:47:16;;;;;;;;;;;;;;;11.63;86.68;101755.13;5045886;28;19921;-69
2022/10/08 05:49:41;;;;;;;;;;;;;;;11.63;86.86;101755.13;5031805;28;20103;-69
2022/10/08 05:52:07;;;;;;;;;;;;;;;11.64;86.54;101758.63;5041266;28;19928;-69
2022/10/08 05:54:32;;;;;;;;;;;;;;;11.65;86.72;101765.63;5031894;28;19920;-69
2022/10/08 05:56:57;;;;;;;;;;;;;;;11.65;86.43;101771.72;5045440;28;19924;-69
2022/10/08 05:59:23;;;;;;;;;;;;;;;11.65;86.82;101779.56;5030840;28;19924;-69
2022/10/08 06:01:48;;;;;;;;;;;;;;;11.66;86.39;101772.63;5039597;28;20007;-69
2022/10/08 06:04:14;;;;;;;;;;;;;;;11.67;86.46;101779.59;5038870;28;20380;-69
2022/10/08 06:06:40;;;;;;;;;;;;;;;11.64;86.26;101785.63;5042396;28;20338;-69
2022/10/08 06:09:06;;;;;;;;;;;;;;;11.65;86.58;101794.34;5029365;28;19924;-69
2022/10/08 06:11:32;;;;;;;;;;;;;;;11.65;86.29;101787.38;5037428;28;19921;-69
2022/10/08 06:13:58;;;;;;;;;;;;;;;11.65;86.51;101789.13;5038363;28;19936;-69
2022/10/08 06:16:24;;;;;;;;;;;;;;;11.63;86.50;101796.91;5039929;28;19916;-69
2022/10/08 06:18:49;;;;;;;;;;;;;;;11.62;86.62;101808.19;5039875;28;19924;-69
2022/10/08 06:21:16;;;;;;;;;;;;;;;11.62;86.25;101810.78;5043014;28;19949;-69
2022/10/08 06:23:46;;;;;;;;;;;;;;;11.61;86.32;101819.44;5030060;28;19921;-69
2022/10/08 06:26:11;;;;;;;;;;;;;;;11.61;86.47;101813.34;5042144;28;20307;-69
2022/10/08 06:28:37;;;;;;;;;;;;;;;11.62;86.50;101817.75;5043682;28;19917;-69
2022/10/08 06:31:03;;;;;;;;;;;;;;;11.63;86.52;101822.13;5032876;28;20440;-69
2022/10/08 06:33:28;;;;;;;;;;;;;;;11.63;86.59;101825.63;5044423;28;19952;-69
2022/10/08 06:35:53;;;;;;;;;;;;;;;11.62;86.58;101834.28;5029232;28;19927;-69
2022/10/08 06:38:19;;;;;;;;;;;;;;;11.63;86.20;101836.06;5030798;28;19921;-69
2022/10/08 06:40:44;;;;;;;;;;;;;;;11.62;86.55;101836.00;5036239;28;19927;-69
2022/10/08 06:43:11;;;;;;;;;;;;;;;11.61;86.46;101842.06;5048783;28;19913;-69
2022/10/08 06:45:37;;;;;;;;;;;;;;;11.62;86.36;101843.84;5044171;28;19986;-69
2022/10/08 06:48:02;;;;;;;;;;;;;;;11.63;86.74;101851.72;5036161;28;19916;-69
2022/10/08 06:50:27;;;;;;;;;;;;;;;11.61;86.38;101850.75;5042859;28;20407;-69
2022/10/08 06:52:53;;;;;;;;;;;;;;;11.62;86.58;101855.16;5035344;28;20470;-69
2022/10/08 06:55:18;;;;;;;;;;;;;;;11.63;86.63;101867.41;5038964;28;19917;-69
2022/10/08 06:57:43;;;;;;;;;;;;;;;11.63;86.83;101872.63;5036347;28;19909;-69
2022/10/08 07:00:08;;;;;;;;;;;;;;;11.62;86.53;101878.66;5040398;28;20292;-69
2022/10/08 07:02:34;;;;;;;;;;;;;;;11.61;86.74;101884.69;5032529;28;19909;-69
2022/10/08 07:04:59;;;;;;;;;;;;;;;11.61;86.85;101889.94;5041970;28;19921;-69
2022/10/08 07:07:24;;;;;;;;;;;;;;;11.61;88.25;101894.25;5031052;28;19921;-69
2022/10/08 07:09:49;;;;;;;;;;;;;;;11.61;87.03;101902.97;5032839;28;19917;-69
2022/10/08 07:12:14;;;;;;;;;;;;;;;11.62;88.11;101912.59;5036258;28;19917;-69
2022/10/08 07:14:40;;;;;;;;;;;;;;;11.64;87.78;101908.34;5030721;28;19960;-69
2022/10/08 07:17:05;;;;;;;;;;;;;;;11.66;87.62;101911.00;5030305;28;20000;-69
2022/10/08 07:19:30;;;;;;;;;;;;;;;11.70;87.84;101917.22;5029372;28;19947;-69
2022/10/08 07:21:55;;;;;;;;;;;;;;;11.70;87.15;101920.69;5030937;28;20411;-69
2022/10/08 07:24:20;;;;;;;;;;;;;;;11.72;87.18;101932.09;5033946;28;20020;-69
2022/10/08 07:26:45;;;;;;;;;;;;;;;11.74;86.95;101921.72;5034045;28;19917;-65
2022/10/08 07:29:11;;;;;;;;;;;;;;;11.77;86.82;101924.44;5027510;28;19952;-64
2022/10/08 07:31:37;;;;;;;;;;;;;;;11.78;87.18;101926.22;5035175;28;19920;-65
2022/10/08 07:34:04;;;;;;;;;;;;;;;11.77;86.97;101938.38;5028006;28;19929;-64
2022/10/08 07:36:30;;;;;;;;;;;;;;;11.79;86.79;101941.06;5031486;28;20447;-64
2022/10/08 07:38:56;;;;;;;;;;;;;;;11.79;86.69;101930.63;5025776;28;19925;-64
2022/10/08 07:41:22;;;;;;;;;;;;;;;11.82;86.69;101938.56;5031272;28;20036;-64
2022/10/08 07:43:51;;;;;;;;;;;;;;;11.86;86.77;101944.75;5027367;28;20266;-64
2022/10/08 07:46:17;;;;;;;;;;;;;;;11.89;86.79;101944.88;5031196;28;19960;-64
2022/10/08 07:48:42;;;;;;;;;;;;;;;11.88;86.65;101951.81;5028149;28;20479;-64
2022/10/08 07:51:12;;;;;;;;;;;;;;;11.91;86.61;101959.75;5030650;28;19913;-64
2022/10/08 07:53:38;;;;;;;;;;;;;;;11.94;86.32;101954.69;5040073;28;19968;-64
2022/10/08 07:56:04;;;;;;;;;;;;;;;11.95;86.69;101948.63;5032494;28;19924;-64
2022/10/08 07:58:29;;;;;;;;;;;;;;;11.97;85.87;101962.63;5049040;28;19912;-64
2022/10/08 08:00:55;;;;;;;;;;;;;;;12.00;86.21;101954.00;5038381;28;20334;-64
2022/10/08 08:03:20;;;;;;;;;;;;;;;12.03;85.65;101963.69;5032473;28;19917;-64
2022/10/08 08:05:45;;;;;;;;;;;;;;;12.03;85.85;101967.19;5035866;28;19949;-65
2022/10/08 08:08:11;;;;;;;;;;;;;;;12.04;85.44;101968.09;5031584;28;19970;-64
2022/10/08 08:10:36;;;;;;;;;;;;;;;12.05;85.59;101962.91;5039303;28;20295;-64
2022/10/08 08:13:01;;;;;;;;;;;;;;;12.07;85.45;101976.03;5027892;28;19967;-64
2022/10/08 08:15:26;;;;;;;;;;;;;;;12.08;85.00;101983.00;5030081;28;19940;-64
2022/10/08 08:17:51;;;;;;;;;;;;;;;12.10;84.90;101984.84;5033186;28;19913;-64
2022/10/08 08:20:17;;;;;;;;;;;;;;;12.11;84.95;101983.16;5037481;28;20411;-64
2022/10/08 08:22:42;;;;;;;;;;;;;;;12.13;84.67;101986.69;5034828;28;19917;-64
2022/10/08 08:25:07;;;;;;;;;;;;;;;12.15;84.82;101992.84;5045733;28;19920;-64
2022/10/08 08:27:32;;;;;;;;;;;;;;;12.17;84.58;101992.06;5031329;28;19914;-69
2022/10/08 08:29:58;;;;;;;;;;;;;;;12.19;84.35;101989.50;5043547;28;19975;-69
2022/10/08 08:32:23;;;;;;;;;;;;;;;12.19;84.09;101997.34;5029939;28;20414;-69
2022/10/08 08:34:48;;;;;;;;;;;;;;;12.21;84.01;102006.16;5034501;28;19925;-69
2022/10/08 08:37:13;;;;;;;;;;;;;;;12.25;84.17;102012.38;5034843;28;19917;-69
2022/10/08 08:39:38;;;;;;;;;;;;;;;12.28;84.07;102015.09;5031709;28;19921;-68
2022/10/08 08:42:23;;;;;;;;;;;;;;;12.31;84.15;102016.09;5033715;28;20032;-69
2022/10/08 08:44:55;;;;;;;;;;;;;;;12.35;83.95;102018.00;5029362;28;19917;-69
2022/10/08 08:47:26;;;;;;;;;;;;;;;12.38;83.83;102024.16;5033961;28;20347;-68
2022/10/08 08:49:57;;;;;;;;;;;;;;;12.41;83.62;102032.09;5030816;28;19921;-69
2022/10/08 08:52:25;;;;;;;;;;;;;;;12.43;83.37;102030.44;5035338;28;20091;-69
2022/10/08 08:54:52;;;;;;;;;;;;;;;12.45;83.24;102039.22;5032849;28;20395;-69
2022/10/08 08:57:17;;;;;;;;;;;;;;;12.47;82.54;102032.28;5036353;28;19927;-64
2022/10/08 08:59:45;;;;;;;;;;;;;;;12.50;82.71;102035.91;5032445;28;19921;-65
2022/10/08 09:02:18;;;;;;;;;;;;;;;12.54;82.46;102034.28;5030197;28;19925;-64
2022/10/08 09:04:49;;;;;;;;;;;;;;;12.57;82.03;102047.50;5031119;28;19962;-64
2022/10/08 09:07:17;;;;;;;;;;;;;;;12.61;81.72;102041.50;5028693;28;19928;-63
2022/10/08 09:09:44;;;;;;;;;;;;;;;12.63;81.61;102039.84;5047082;28;19927;-64
2022/10/08 09:12:15;;;;;;;;;;;;;;;12.67;81.53;102048.69;5046397;28;20129;-64
2022/10/08 09:14:43;;;;;;;;;;;;;;;12.73;81.32;102050.63;5042444;28;20056;-64
2022/10/08 09:17:13;;;;;;;;;;;;;;;12.75;81.15;102046.34;5031229;28;19917;-64
2022/10/08 09:19:39;;;;;;;;;;;;;;;12.76;81.30;102050.72;5037359;28;19917;-64
2022/10/08 09:22:09;;;;;;;;;;;;;;;12.81;81.08;102059.63;5047408;28;19923;-64
2022/10/08 09:24:34;;;;;;;;;;;;;;;12.82;80.21;102067.53;5051031;28;19913;-63
2022/10/08 09:26:59;;;;;;;;;;;;;;;12.82;79.71;102064.03;5038082;28;20412;-64
2022/10/08 09:29:30;;;;;;;;;;;;;;;12.85;79.67;102064.13;5043894;28;20472;-63
2022/10/08 09:31:55;;;;;;;;;;;;;;;12.87;79.85;102062.44;5031006;28;20308;-65
2022/10/08 09:34:21;;;;;;;;;;;;;;;12.94;79.04;102072.28;5032378;28;19922;-66
2022/10/08 09:37:00;;;;;;;;;;;;;;;13.03;79.28;102077.84;5031188;28;20685;-66
2022/10/08 09:39:30;;;;;;;;;;;;;;;13.14;78.87;102077.28;5025601;28;19917;-65
2022/10/08 09:42:16;;;;;;;;;;;;;;;13.24;79.14;102087.22;5033751;28;19920;-66
2022/10/08 09:44:51;;;;;;;;;;;;;;;13.36;78.64;102078.91;5031400;28;19924;-66
2022/10/08 09:47:18;;;;;;;;;;;;;;;13.45;77.85;102080.94;5031795;28;19947;-65
2022/10/08 09:49:48;;;;;;;;;;;;;;;13.51;77.99;102084.63;5038141;28;19936;-65
2022/10/08 09:52:18;;;;;;;;;;;;;;;13.58;77.10;102101.41;5036088;28;19928;-65
2022/10/08 09:54:48;;;;;;;;;;;;;;;13.63;77.09;102089.38;5030360;28;20035;-66
2022/10/08 09:57:15;;;;;;;;;;;;;;;13.69;77.54;102097.41;5043091;28;19925;-69
2022/10/08 09:59:47;;;;;;;;;;;;;;;13.74;76.96;102103.69;5031401;28;19916;-69
2022/10/08 10:02:32;;;;;;;;;;;;;;;13.78;77.08;102106.41;5029794;28;19917;-70
2022/10/08 10:04:58;;;;;;;;;;;;;;;13.79;76.61;102102.91;5031727;28;19924;-70
2022/10/08 10:07:34;;;;;;;;;;;;;;;13.79;76.64;102116.00;5036195;28;20273;-70
2022/10/08 10:10:00;;;;;;;;;;;;;;;13.77;76.13;102107.22;5038312;28;20269;-70
2022/10/08 10:12:31;;;;;;;;;;;;;;;13.73;76.01;102120.22;5035300;28;19921;-71
2022/10/08 10:15:00;;;;;;;;;;;;;;;13.70;75.52;102119.22;5039701;28;19921;-70
2022/10/08 10:17:48;;;;;;;;;;;;;;;13.72;75.98;102109.72;5023737;28;20368;-70
2022/10/08 10:20:32;;;;;;;;;;;;;;;13.84;76.23;102122.28;5035335;28;20404;-70
2022/10/08 10:23:05;;;;;;;;;;;;;;;14.11;76.26;102117.00;5033003;28;20117;-70
2022/10/08 10:25:40;;;;;;;;;;;;;;;14.33;74.28;102118.50;5031915;28;19921;-70
2022/10/08 10:28:11;;;;;;;;;;;;;;;14.41;74.33;102117.00;5035627;28;19925;-70
2022/10/08 10:30:56;;;;;;;;;;;;;;;14.47;73.97;102120.63;5031018;28;20472;-70
2022/10/08 10:33:27;;;;;;;;;;;;;;;14.63;74.45;102119.34;5037936;28;19924;-70
2022/10/08 10:35:55;;;;;;;;;;;;;;;14.77;74.65;102121.53;5041828;28;19924;-70
2022/10/08 10:38:26;;;;;;;;;;;;;;;14.84;73.43;102135.66;5033125;28;19952;-70
2022/10/08 10:41:06;;;;;;;;;;;;;;;14.83;73.76;102130.38;5022096;28;20163;-70
2022/10/08 10:43:48;;;;;;;;;;;;;;;14.71;73.20;102134.44;5028481;28;19925;-70
2022/10/08 10:46:13;;;;;;;;;;;;;;;14.64;73.86;102136.88;5026872;28;19932;-70
2022/10/08 10:48:39;;;;;;;;;;;;;;;14.64;73.04;102134.25;5042125;28;19920;-70
2022/10/08 10:51:12;;;;;;;;;;;;;;;14.67;73.26;102137.88;5028591;28;19967;-70
2022/10/08 10:53:44;;;;;;;;;;;;;;;14.81;73.58;102130.34;5032697;28;19927;-70
2022/10/08 10:56:19;;;;;;;;;;;;;;;14.95;72.47;102130.72;5034817;28;20446;-65
2022/10/08 10:59:03;;;;;;;;;;;;;;;15.10;71.79;102131.09;5032828;28;19928;-67
2022/10/08 11:01:34;;;;;;;;;;;;;;;15.29;69.57;102131.56;5032118;28;19917;-67
2022/10/08 11:04:06;;;;;;;;;;;;;;;15.43;69.86;102135.41;5026366;28;19917;-67
2022/10/08 11:06:50;;;;;;;;;;;;;;;15.63;69.42;102140.28;5029084;28;19967;-66
2022/10/08 11:09:34;;;;;;;;;;;;;;;15.73;66.18;102144.91;5036650;28;19919;-66
2022/10/08 11:12:07;;;;;;;;;;;;;;;15.73;66.47;102139.63;5041551;28;20144;-66
2022/10/08 11:14:46;;;;;;;;;;;;;;;15.75;65.56;102142.31;5046075;28;20063;-65
2022/10/08 11:17:28;;;;;;;;;;;;;;;15.80;66.29;102144.22;5048082;28;19921;-66
2022/10/08 11:19:54;;;;;;;;;;;;;;;15.90;64.52;102132.19;5019815;28;19979;-66
2022/10/08 11:22:22;;;;;;;;;;;;;;;15.98;64.85;102134.97;5019551;28;20011;-66
2022/10/08 11:25:10;;;;;;;;;;;;;;;16.09;66.29;102136.09;5024964;28;20032;-67
2022/10/08 11:27:35;;;;;;;;;;;;;;;16.25;65.73;102137.31;5032646;28;19917;-70
2022/10/08 11:30:19;;;;;;;;;;;;;;;16.37;66.07;102139.31;5031648;28;19971;-70
2022/10/08 11:32:49;;;;;;;;;;;;;;;16.46;66.19;102139.47;5030085;28;20416;-70
2022/10/08 11:35:14;;;;;;;;;;;;;;;16.64;65.49;102138.06;5027120;28;19924;-70
2022/10/08 11:37:47;;;;;;;;;;;;;;;16.80;65.87;102150.66;5028281;28;20402;-71
2022/10/08 11:40:23;;;;;;;;;;;;;;;16.73;65.80;102156.69;5029288;28;19917;-70
2022/10/08 11:43:06;;;;;;;;;;;;;;;16.67;65.66;102146.03;5026767;28;20289;-70
2022/10/08 11:45:34;;;;;;;;;;;;;;;16.65;65.94;102158.25;5027518;28;19929;-70
2022/10/08 11:47:59;;;;;;;;;;;;;;;16.73;64.13;102155.78;5024773;28;19921;-70
2022/10/08 11:50:36;;;;;;;;;;;;;;;16.68;61.46;102163.59;5023974;28;19921;-71
2022/10/08 11:53:11;;;;;;;;;;;;;;;16.61;63.09;102159.06;5026347;28;19925;-69
2022/10/08 11:55:37;;;;;;;;;;;;;;;16.63;61.41;102162.63;5029674;28;20000;-69
2022/10/08 11:58:04;;;;;;;;;;;;;;;16.65;63.18;102155.63;5039946;28;20011;-64
2022/10/08 12:00:40;;;;;;;;;;;;;;;16.69;62.04;102157.47;5039900;28;19971;-64
2022/10/08 12:03:26;;;;;;;;;;;;;;;16.75;63.64;102165.47;5034427;28;19927;-66
2022/10/08 12:05:53;;;;;;;;;;;;;;;16.93;64.05;102162.34;5043197;28;19996;-66
2022/10/08 12:08:37;;;;;;;;;;;;;;;17.13;63.52;102160.09;5038160;28;19998;-66
2022/10/08 12:11:20;;;;;;;;;;;;;;;17.26;63.66;102155.88;5026882;28;20415;-65
2022/10/08 12:14:06;;;;;;;;;;;;;;;17.27;63.54;102157.66;5040196;28;19921;-65
2022/10/08 12:16:51;;;;;;;;;;;;;;;17.18;63.39;102168.94;5037118;28;19967;-66
2022/10/08 12:19:31;;;;;;;;;;;;;;;16.98;63.13;102165.06;5031011;28;19916;-65
2022/10/08 12:21:59;;;;;;;;;;;;;;;16.78;64.28;102162.91;5030047;28;19921;-64
2022/10/08 12:24:37;;;;;;;;;;;;;;;16.66;64.12;102168.81;5039800;28;19913;-65
2022/10/08 12:27:19;;;;;;;;;;;;;;;16.63;63.86;102165.25;5050592;28;19967;-70
2022/10/08 12:29:53;;;;;;;;;;;;;;;16.68;63.45;102168.84;5025372;28;19928;-70
2022/10/08 12:32:19;;;;;;;;;;;;;;;16.62;62.18;102166.09;5031572;28;19916;-70
2022/10/08 12:34:44;;;;;;;;;;;;;;;16.58;63.45;102164.25;5034114;28;20007;-71
2022/10/08 12:37:13;;;;;;;;;;;;;;;16.67;63.42;102172.34;5030774;28;19939;-70
2022/10/08 12:39:43;;;;;;;;;;;;;;;16.78;62.96;102172.56;5029023;28;19925;-70
2022/10/08 12:42:20;;;;;;;;;;;;;;;16.73;63.20;102175.09;5032422;28;19921;-70